This is the latest recevied weather packets stored in our database for station/object TA3HRJ-12. If no packets are shown the sender has not sent any weather packets the latest 10 day(s).
| Time | Temp. | Humidity | Pressure | Rain* | Wind** | Luminosity | Snow |
|---|---|---|---|---|---|---|---|
| 1777819201 | 15° C | 39% | 1016.7 hPa | - | - | - | - |
| 1777818301 | 16.11° C | 38% | 1017 hPa | - | - | - | - |
| 1777817401 | 16.11° C | 37% | 1017.4 hPa | - | - | - | - |
| 1777816501 | 15.56° C | 38% | 1017.7 hPa | - | - | - | - |
| 1777815601 | 16.67° C | 36% | 1017.6 hPa | - | - | - | - |
| 1777814701 | 17.78° C | 34% | 1017.9 hPa | - | - | - | - |
| 1777813801 | 16.67° C | 36% | 1017.9 hPa | - | - | - | - |
| 1777812901 | 18.89° C | 32% | 1018 hPa | - | - | - | - |
| 1777812001 | 17.78° C | 34% | 1018.2 hPa | - | - | - | - |
| 1777811101 | 20° C | 30% | 1018.4 hPa | - | - | - | - |
| 1777810200 | 20.56° C | 29% | 1018.9 hPa | - | - | - | - |
| 1777809300 | 22.22° C | 27% | 1018.7 hPa | - | - | - | - |
| 1777808400 | 22.22° C | 27% | 1019 hPa | - | - | - | - |
| 1777807500 | 20.56° C | 30% | 1019.2 hPa | - | - | - | - |
| 1777806600 | 19.44° C | 30% | 1019.7 hPa | - | - | - | - |
| 1777805700 | 17.78° C | 32% | 1019.9 hPa | - | - | - | - |
| 1777804800 | 18.89° C | 32% | 1020.3 hPa | - | - | - | - |
| 1777803900 | 18.33° C | 32% | 1020.5 hPa | - | - | - | - |
| 1777803000 | 18.89° C | 31% | 1020.5 hPa | - | - | - | - |
| 1777802100 | 21.11° C | 29% | 1020.5 hPa | - | - | - | - |
| 1777801199 | 20.56° C | 29% | 1020.5 hPa | - | - | - | - |
| 1777800299 | 21.11° C | 29% | 1020.7 hPa | - | - | - | - |
| 1777799399 | 20° C | 29% | 1020.7 hPa | - | - | - | - |
| 1777798499 | 21.67° C | 28% | 1020.8 hPa | - | - | - | - |
| 1777797599 | 21.11° C | 29% | 1021.1 hPa | - | - | - | - |
* Rain since midnight (hover to see other rain measurements)
** Current wind speed in m/s (hover to see current wind gust speed)